WIF9DF ENTC-ENSR

Flight info

Callsign WIF9DF
Flight time 0h 22m
Altitude 10000
Route DCT INLAM
Aircraft DH8B/M-SDFGRY/SB1

Departure

Time 2026-04-26 19:33
Airport Tromsø Airport (ENTC)

Arrival

Time 2026-04-26 19:55
Airport Sørkjosen Airport (ENSR)
Time Latitude Longitude Altitude Speed Heading
2026-04-26 19:15 69.68051 18.90969 -6 ft 0 kts 283°
2026-04-26 19:24 69.68053 18.90964 -7 ft 1 kts 319°
2026-04-26 19:24 69.68052 18.91150 -6 ft 8 kts 96°
2026-04-26 19:25 69.68066 18.91327 -6 ft 10 kts 13°
2026-04-26 19:25 69.68113 18.91354 -6 ft 10 kts 11°
2026-04-26 19:25 69.68213 18.91404 -7 ft 11 kts
2026-04-26 19:25 69.68290 18.91445 -8 ft 11 kts 12°
2026-04-26 19:26 69.68368 18.91485 -9 ft 11 kts
2026-04-26 19:26 69.68445 18.91502 -9 ft 11 kts
2026-04-26 19:26 69.68523 18.91544 -10 ft 11 kts 12°
2026-04-26 19:26 69.68606 18.91601 -11 ft 12 kts 14°
2026-04-26 19:27 69.68655 18.91542 -12 ft 6 kts 303°
2026-04-26 19:27 69.68693 18.91477 -12 ft 9 kts 14°
2026-04-26 19:27 69.68710 18.91489 -12 ft 0 kts 14°
2026-04-26 19:29 69.68712 18.91491 -12 ft 1 kts 14°
2026-04-26 19:29 69.68707 18.91559 -12 ft 7 kts 120°
2026-04-26 19:29 69.68645 18.91631 -11 ft 13 kts 191°
2026-04-26 19:29 69.68547 18.91565 -10 ft 15 kts 194°
2026-04-26 19:30 69.68438 18.91503 -9 ft 15 kts 181°
2026-04-26 19:30 69.68328 18.91490 -8 ft 16 kts 189°
2026-04-26 19:30 69.68218 18.91423 -7 ft 16 kts 193°
2026-04-26 19:30 69.68145 18.91373 -7 ft 16 kts 193°
2026-04-26 19:31 69.68003 18.91280 -6 ft 15 kts 193°
2026-04-26 19:31 69.67902 18.91215 -5 ft 14 kts 193°
2026-04-26 19:31 69.67805 18.91152 -5 ft 14 kts 192°
2026-04-26 19:31 69.67737 18.91282 -4 ft 14 kts 103°
2026-04-26 19:32 69.67731 18.91498 -4 ft 7 kts 22°
2026-04-26 19:32 69.67774 18.91527 -3 ft 32 kts 12°
2026-04-26 19:32 69.68291 18.91876 13 ft 109 kts 12°
2026-04-26 19:32 69.69076 18.92481 446 ft 126 kts 14°
2026-04-26 19:33 69.69966 18.93180 1016 ft 139 kts 11°
2026-04-26 19:33 69.70887 18.93729 1750 ft 138 kts 10°
2026-04-26 19:33 69.71877 18.94436 2183 ft 158 kts 11°
2026-04-26 19:33 69.72965 18.95138 2825 ft 162 kts
2026-04-26 19:34 69.73910 18.96775 3506 ft 172 kts 50°
2026-04-26 19:34 69.74434 18.99863 4180 ft 172 kts 60°
2026-04-26 19:34 69.74966 19.02954 4670 ft 174 kts 58°
2026-04-26 19:34 69.75518 19.06056 5115 ft 178 kts 57°
2026-04-26 19:35 69.76052 19.09302 5582 ft 180 kts 61°
2026-04-26 19:35 69.76570 19.12544 6044 ft 181 kts 60°
2026-04-26 19:35 69.77092 19.15812 6487 ft 181 kts 59°
2026-04-26 19:35 69.77625 19.19138 6907 ft 184 kts 59°
2026-04-26 19:36 69.78161 19.22488 7344 ft 185 kts 59°
2026-04-26 19:36 69.78521 19.24727 7636 ft 186 kts 60°
2026-04-26 19:36 69.79239 19.29234 8175 ft 189 kts 60°
2026-04-26 19:36 69.79791 19.32681 8632 ft 189 kts 60°
2026-04-26 19:37 69.80345 19.36177 9035 ft 192 kts 60°
2026-04-26 19:37 69.80893 19.39630 9466 ft 192 kts 59°
2026-04-26 19:37 69.81451 19.43171 9870 ft 194 kts 60°
2026-04-26 19:37 69.82012 19.46695 9993 ft 195 kts 60°
2026-04-26 19:38 69.82577 19.50285 9997 ft 194 kts 60°
2026-04-26 19:38 69.83133 19.53811 10009 ft 194 kts 61°
2026-04-26 19:38 69.83696 19.57387 10002 ft 195 kts 59°
2026-04-26 19:38 69.84255 19.60964 10010 ft 195 kts 60°
2026-04-26 19:39 69.84810 19.64506 10004 ft 195 kts 60°
2026-04-26 19:39 69.85373 19.68111 10014 ft 195 kts 61°
2026-04-26 19:39 69.85936 19.71711 10004 ft 196 kts 60°
2026-04-26 19:39 69.86491 19.75284 10023 ft 196 kts 61°
2026-04-26 19:40 69.87053 19.78882 10018 ft 198 kts 60°
2026-04-26 19:40 69.87625 19.82523 10022 ft 199 kts 62°
2026-04-26 19:40 69.88196 19.86221 10021 ft 200 kts 60°
2026-04-26 19:40 69.88769 19.89931 10015 ft 203 kts 61°
2026-04-26 19:41 69.89342 19.93653 10011 ft 205 kts 60°
2026-04-26 19:41 69.89933 19.97479 10034 ft 208 kts 61°
2026-04-26 19:41 69.90520 20.01310 9984 ft 211 kts 63°
2026-04-26 19:41 69.90916 20.03891 9999 ft 210 kts 59°
2026-04-26 19:42 69.91719 20.09100 9989 ft 212 kts 63°
2026-04-26 19:42 69.92312 20.13004 9978 ft 213 kts 63°
2026-04-26 19:42 69.92909 20.16903 9995 ft 213 kts 60°
2026-04-26 19:42 69.93510 20.20854 10028 ft 214 kts 60°
2026-04-26 19:43 69.94118 20.24856 9991 ft 216 kts 62°
2026-04-26 19:43 69.94719 20.28839 9990 ft 216 kts 62°
2026-04-26 19:43 69.95327 20.32833 9998 ft 216 kts 61°
2026-04-26 19:43 69.95931 20.36842 9983 ft 216 kts 61°
2026-04-26 19:44 69.96536 20.40823 10020 ft 216 kts 61°
2026-04-26 19:44 69.97132 20.44820 10004 ft 217 kts 61°
2026-04-26 19:44 69.97743 20.48861 10023 ft 218 kts 62°
2026-04-26 19:44 69.98354 20.52953 10005 ft 220 kts 62°
2026-04-26 19:45 69.98959 20.57020 9992 ft 220 kts 60°
2026-04-26 19:45 69.99573 20.61132 9984 ft 220 kts 61°
2026-04-26 19:45 70.00180 20.65179 9877 ft 215 kts 63°
2026-04-26 19:45 70.00781 20.69211 9369 ft 214 kts 62°
2026-04-26 19:46 70.01356 20.73136 8901 ft 212 kts 62°
2026-04-26 19:46 70.01944 20.77075 8450 ft 210 kts 62°
2026-04-26 19:46 70.02518 20.80924 8015 ft 208 kts 63°
2026-04-26 19:46 70.03082 20.84805 7569 ft 206 kts 61°
2026-04-26 19:47 70.03237 20.88930 7150 ft 212 kts 97°
2026-04-26 19:47 70.03000 20.91693 6897 ft 210 kts 102°
2026-04-26 19:47 70.02533 20.97098 6390 ft 205 kts 101°
2026-04-26 19:47 70.02202 21.01087 6025 ft 202 kts 100°
2026-04-26 19:48 70.01890 21.05074 5650 ft 198 kts 100°
2026-04-26 19:48 70.01192 21.08463 5271 ft 200 kts 142°
2026-04-26 19:48 69.99960 21.09631 5072 ft 184 kts 185°
2026-04-26 19:48 69.98733 21.08716 4853 ft 184 kts 205°
2026-04-26 19:49 69.97490 21.07637 4650 ft 190 kts 200°
2026-04-26 19:49 69.96204 21.06647 4389 ft 196 kts 199°
2026-04-26 19:49 69.94875 21.05709 4131 ft 199 kts 198°
2026-04-26 19:49 69.93524 21.04784 3879 ft 200 kts 198°
2026-04-26 19:50 69.92168 21.03875 3643 ft 200 kts 198°
2026-04-26 19:50 69.90823 21.02978 3405 ft 199 kts 197°
2026-04-26 19:50 69.89482 21.02082 3170 ft 198 kts 197°
2026-04-26 19:50 69.88162 21.01190 2867 ft 194 kts 197°
2026-04-26 19:51 69.86869 21.00324 2570 ft 185 kts 198°
2026-04-26 19:51 69.85665 20.99523 2368 ft 169 kts 198°
2026-04-26 19:51 69.84564 20.98780 2117 ft 158 kts 198°
2026-04-26 19:51 69.83478 20.98040 1922 ft 167 kts 197°
2026-04-26 19:52 69.82292 20.97860 1719 ft 177 kts 168°
2026-04-26 19:52 69.81201 20.99487 1558 ft 179 kts 147°
2026-04-26 19:52 69.80167 21.01442 1380 ft 174 kts 146°
2026-04-26 19:52 69.79238 21.03252 1121 ft 147 kts 146°
2026-04-26 19:53 69.78451 21.04835 829 ft 130 kts 149°
2026-04-26 19:53 69.77692 21.05322 567 ft 102 kts 195°
2026-04-26 19:53 69.77151 21.04388 212 ft 87 kts 245°
2026-04-26 19:53 69.77254 21.02974 256 ft 84 kts 327°
2026-04-26 19:54 69.77786 21.02250 310 ft 87 kts 332°
2026-04-26 19:54 69.78154 21.00854 250 ft 95 kts 290°
2026-04-26 19:54 69.78118 20.98960 186 ft 101 kts 270°
2026-04-26 19:54 69.78227 20.97121 143 ft 89 kts 284°
2026-04-26 19:55 69.78654 20.96009 13 ft 84 kts 331°
2026-04-26 19:55 69.79014 20.95483 2 ft 27 kts 337°
2026-04-26 19:55 69.79108 20.95360 1 ft 8 kts 223°
2026-04-26 19:55 69.79044 20.95435 2 ft 12 kts 154°
2026-04-26 19:56 69.78960 20.95550 2 ft 14 kts 150°
2026-04-26 19:56 69.78872 20.95674 3 ft 14 kts 155°
2026-04-26 19:56 69.78780 20.95799 3 ft 15 kts 155°
2026-04-26 19:56 69.78683 20.95929 3 ft 15 kts 156°
2026-04-26 19:57 69.78599 20.95937 4 ft 9 kts 245°
2026-04-26 19:57 69.78581 20.95856 3 ft 2 kts 226°
2026-04-26 19:57 69.78576 20.95850 3 ft 0 kts 183°